| time (UTC) | temp F | wind direction | speed knots | gust knots | rain 1hr in | rain 24hr in | rain mn in | humidity % | barometer mb |
| 20260502182001 | 70 | 207 | 0.0 | 0.0 | 0.00 | 0.00 | 0.00 | 40 | 1017.0 |
| 20260502181501 | 71 | 207 | 0.0 | 0.0 | 0.00 | 0.00 | 0.00 | 40 | 1017.0 |
| 20260502181000 | 71 | 207 | 0.0 | 0.0 | 0.00 | 0.00 | 0.00 | 40 | 1017.0 |
| 20260502180500 | 71 | 207 | 0.0 | 0.0 | 0.00 | 0.00 | 0.00 | 39 | 1017.0 |
| 20260502170501 | 74 | 209 | 0.0 | 0.0 | 0.00 | 0.00 | 0.00 | 36 | 1018.0 |
| 20260502164004 | 74 | 205 | 0.0 | 0.0 | 0.00 | 0.00 | 0.00 | 35 | 1018.0 |
| 20260502163504 | 76 | 208 | 0.0 | 0.0 | 0.00 | 0.00 | 0.00 | 35 | 1018.0 |
| 20260502163003 | 76 | 208 | 0.0 | 0.0 | 0.00 | 0.00 | 0.00 | 35 | 1018.0 |
| 20260502162503 | 76 | 208 | 0.0 | 0.0 | 0.00 | 0.00 | 0.00 | 35 | 1018.0 |
| 20260502162003 | 76 | 208 | 0.0 | 0.0 | 0.00 | 0.00 | 0.00 | 35 | 1018.0 |
| 20260502161502 | 76 | 212 | 0.0 | 0.0 | 0.00 | 0.00 | 0.00 | 35 | 1018.0 |
| 20260502161002 | 76 | 212 | 0.0 | 0.0 | 0.00 | 0.00 | 0.00 | 35 | 1018.0 |
| 20260502160502 | 77 | 279 | 0.0 | 0.0 | 0.00 | 0.00 | 0.00 | 34 | 1018.0 |
| 20260502152003 | 79 | 279 | 0.0 | 0.0 | 0.00 | 0.00 | 0.00 | 33 | 1019.0 |
| 20260502151503 | 79 | 278 | 0.0 | 0.0 | 0.00 | 0.00 | 0.00 | 33 | 1019.0 |
| 20260502151003 | 79 | 278 | 0.0 | 0.0 | 0.00 | 0.00 | 0.00 | 33 | 1019.0 |
| 20260502150502 | 79 | 278 | 0.0 | 0.0 | 0.00 | 0.00 | 0.00 | 33 | 1019.0 |
| 20260502130504 | 80 | 276 | 0.0 | 0.0 | 0.00 | 0.00 | 0.00 | 34 | 1020.0 |
| 20260502123502 | 79 | 260 | 0.0 | 0.0 | 0.00 | 0.00 | 0.00 | 33 | 1021.0 |
| 20260502123001 | 79 | 260 | 0.0 | 0.0 | 0.00 | 0.00 | 0.00 | 33 | 1021.0 |
| 20260502122501 | 79 | 260 | 0.0 | 0.0 | 0.00 | 0.00 | 0.00 | 34 | 1021.0 |
| 20260502122000 | 79 | 260 | 0.0 | 0.0 | 0.00 | 0.00 | 0.00 | 34 | 1021.0 |
| 20260502121500 | 79 | 260 | 0.0 | 0.0 | 0.00 | 0.00 | 0.00 | 35 | 1021.0 |
| 20260502121005 | 79 | 260 | 0.0 | 0.0 | 0.00 | 0.00 | 0.00 | 35 | 1021.0 |
| 20260502120504 | 78 | 245 | 0.0 | 0.0 | 0.00 | 0.00 | 0.00 | 34 | 1021.0 |
| 20260502115504 | 78 | 245 | 0.0 | 0.0 | 0.00 | 0.00 | 0.00 | 36 | 1021.0 |
| 20260502115003 | 78 | 245 | 0.0 | 0.0 | 0.00 | 0.00 | 0.00 | 36 | 1021.0 |
| 20260502114503 | 78 | 210 | 0.0 | 0.0 | 0.00 | 0.00 | 0.00 | 35 | 1021.0 |
| 20260502114003 | 78 | 210 | 0.0 | 0.0 | 0.00 | 0.00 | 0.00 | 35 | 1021.0 |
| 20260502113502 | 79 | 210 | 0.0 | 0.0 | 0.00 | 0.00 | 0.00 | 35 | 1022.0 |
| 20260502113002 | 79 | 210 | 0.0 | 0.0 | 0.00 | 0.00 | 0.00 | 35 | 1022.0 |
| 20260502112502 | 79 | 211 | 0.0 | 0.0 | 0.00 | 0.00 | 0.00 | 36 | 1022.0 |
| 20260502112001 | 79 | 211 | 0.0 | 0.0 | 0.00 | 0.00 | 0.00 | 36 | 1022.0 |
| 20260502111501 | 79 | 223 | 0.0 | 0.0 | 0.00 | 0.00 | 0.00 | 38 | 1022.0 |
| 20260502111001 | 79 | 223 | 0.0 | 0.0 | 0.00 | 0.00 | 0.00 | 38 | 1022.0 |
| 20260502110500 | 79 | 206 | 0.0 | 0.0 | 0.00 | 0.00 | 0.00 | 38 | 1022.0 |
| 20260502110005 | 79 | 206 | 0.0 | 0.0 | 0.00 | 0.00 | 0.00 | 38 | 1022.0 |
| 20260502105504 | 78 | 208 | 0.0 | 0.0 | 0.00 | 0.00 | 0.00 | 38 | 1022.0 |
| 20260502105004 | 78 | 208 | 0.0 | 0.0 | 0.00 | 0.00 | 0.00 | 38 | 1022.0 |
| 20260502104504 | 78 | 208 | 0.0 | 0.0 | 0.00 | 0.00 | 0.00 | 38 | 1022.0 |
| 20260502104003 | 78 | 208 | 0.0 | 0.0 | 0.00 | 0.00 | 0.00 | 38 | 1022.0 |
| 20260502103503 | 78 | 208 | 0.0 | 0.0 | 0.00 | 0.00 | 0.00 | 39 | 1022.0 |
| 20260502103003 | 78 | 208 | 0.0 | 0.0 | 0.00 | 0.00 | 0.00 | 39 | 1022.0 |
| 20260502102502 | 78 | 205 | 0.0 | 0.0 | 0.00 | 0.00 | 0.00 | 38 | 1022.0 |
| 20260502102002 | 78 | 205 | 0.0 | 0.0 | 0.00 | 0.00 | 0.00 | 38 | 1022.0 |
| 20260502101502 | 77 | 212 | 0.0 | 0.0 | 0.00 | 0.00 | 0.00 | 39 | 1022.0 |
| 20260502101001 | 77 | 212 | 0.0 | 0.0 | 0.00 | 0.00 | 0.00 | 39 | 1022.0 |
| 20260502100501 | 77 | 221 | 0.0 | 0.0 | 0.00 | 0.00 | 0.00 | 39 | 1022.0 |
| 20260502091502 | 74 | 217 | 0.0 | 0.0 | 0.00 | 0.00 | 0.00 | 41 | 1023.0 |
| 20260502091002 | 74 | 217 | 0.0 | 0.0 | 0.00 | 0.00 | 0.00 | 41 | 1023.0 |
| 20260502090502 | 74 | 217 | 0.0 | 0.0 | 0.00 | 0.00 | 0.00 | 42 | 1023.0 |
| 20260502071504 | 59 | 218 | 0.0 | 0.0 | 0.00 | 0.00 | 0.00 | 65 | 1024.0 |
| 20260502071003 | 59 | 218 | 0.0 | 0.0 | 0.00 | 0.00 | 0.00 | 65 | 1024.0 |
| 20260502070503 | 57 | 232 | 0.0 | 0.0 | 0.00 | 0.00 | 0.00 | 71 | 1024.0 |
| 20260502070003 | 57 | 232 | 0.0 | 0.0 | 0.00 | 0.00 | 0.00 | 71 | 1024.0 |
| 20260502065502 | 56 | 232 | 0.0 | 0.0 | 0.00 | 0.00 | 0.00 | 73 | 1024.0 |
| 20260502065002 | 56 | 232 | 0.0 | 0.0 | 0.00 | 0.00 | 0.00 | 73 | 1024.0 |
| 20260502064502 | 55 | 229 | 0.0 | 0.0 | 0.00 | 0.00 | 0.00 | 73 | 1024.0 |
| 20260502064002 | 55 | 229 | 0.0 | 0.0 | 0.00 | 0.00 | 0.00 | 73 | 1024.0 |
| 20260502063501 | 54 | 237 | 0.0 | 0.0 | 0.00 | 0.00 | 0.00 | 76 | 1025.0 |
| 20260502063001 | 54 | 237 | 0.0 | 0.0 | 0.00 | 0.00 | 0.00 | 76 | 1025.0 |
| 20260502062500 | 53 | 237 | 0.0 | 0.0 | 0.00 | 0.00 | 0.00 | 77 | 1025.0 |
| 20260502062005 | 53 | 237 | 0.0 | 0.0 | 0.00 | 0.00 | 0.00 | 77 | 1025.0 |
| 20260502061504 | 52 | 240 | 0.0 | 0.0 | 0.00 | 0.00 | 0.00 | 79 | 1025.0 |
| 20260502061004 | 52 | 240 | 0.0 | 0.0 | 0.00 | 0.00 | 0.00 | 79 | 1025.0 |
| 20260502060504 | 49 | 225 | 0.0 | 0.0 | 0.00 | 0.00 | 0.00 | 87 | 1025.0 |
| 20260502060004 | 49 | 225 | 0.0 | 0.0 | 0.00 | 0.00 | 0.00 | 87 | 1025.0 |
| 20260502055503 | 49 | 225 | 0.0 | 0.0 | 0.00 | 0.00 | 0.00 | 87 | 1025.0 |
| 20260502055003 | 49 | 225 | 0.0 | 0.0 | 0.00 | 0.00 | 0.00 | 87 | 1025.0 |
| 20260502054502 | 48 | 225 | 0.0 | 0.0 | 0.00 | 0.00 | 0.00 | 88 | 1025.0 |
| 20260502054002 | 48 | 225 | 0.0 | 0.0 | 0.00 | 0.00 | 0.00 | 88 | 1025.0 |
| 20260502053502 | 47 | 225 | 0.0 | 0.0 | 0.00 | 0.00 | 0.00 | 87 | 1025.0 |
| 20260502053001 | 47 | 225 | 0.0 | 0.0 | 0.00 | 0.00 | 0.00 | 87 | 1025.0 |
| 20260502052501 | 45 | 225 | 0.0 | 0.0 | 0.00 | 0.00 | 0.00 | 85 | 1025.0 |
| 20260502052001 | 45 | 225 | 0.0 | 0.0 | 0.00 | 0.00 | 0.00 | 85 | 1025.0 |
| 20260502051500 | 44 | 225 | 0.0 | 0.0 | 0.00 | 0.00 | 0.00 | 80 | 1025.0 |
| 20260502051000 | 44 | 225 | 0.0 | 0.0 | 0.00 | 0.00 | 0.00 | 80 | 1025.0 |
| 20260502050505 | 44 | 225 | 0.0 | 0.0 | 0.00 | 0.00 | 0.00 | 78 | 1025.0 |
| 20260502050005 | 44 | 225 | 0.0 | 0.0 | 0.00 | 0.00 | 0.00 | 78 | 1025.0 |
| 20260502045504 | 43 | 225 | 0.0 | 0.0 | 0.00 | 0.00 | 0.00 | 75 | 1025.0 |
| 20260502045004 | 43 | 225 | 0.0 | 0.0 | 0.00 | 0.00 | 0.00 | 75 | 1025.0 |
| 20260502044504 | 43 | 185 | 0.0 | 0.0 | 0.00 | 0.00 | 0.00 | 76 | 1025.0 |
| 20260502044003 | 43 | 185 | 0.0 | 0.0 | 0.00 | 0.00 | 0.00 | 76 | 1025.0 |
| 20260502043503 | 42 | 73 | 0.0 | 0.0 | 0.00 | 0.00 | 0.00 | 78 | 1025.0 |
| 20260502043003 | 42 | 73 | 0.0 | 0.0 | 0.00 | 0.00 | 0.00 | 78 | 1025.0 |
| 20260502042502 | 41 | 62 | 0.0 | 0.0 | 0.00 | 0.00 | 0.00 | 80 | 1025.0 |
| 20260502042002 | 41 | 62 | 0.0 | 0.0 | 0.00 | 0.00 | 0.00 | 80 | 1025.0 |
| 20260502041501 | 39 | 62 | 0.0 | 0.0 | 0.00 | 0.00 | 0.00 | 80 | 1025.0 |
| 20260502041001 | 39 | 62 | 0.0 | 0.0 | 0.00 | 0.00 | 0.00 | 80 | 1025.0 |
| 20260502040500 | 38 | 62 | 0.0 | 0.0 | 0.00 | 0.00 | 0.00 | 79 | 1025.0 |
| 20260502040000 | 38 | 62 | 0.0 | 0.0 | 0.00 | 0.00 | 0.00 | 79 | 1025.0 |
| 20260502035505 | 38 | 69 | 0.0 | 0.0 | 0.00 | 0.00 | 0.00 | 78 | 1025.0 |
| 20260502035004 | 38 | 69 | 0.0 | 0.0 | 0.00 | 0.00 | 0.00 | 78 | 1025.0 |
| 20260502034504 | 39 | 69 | 0.0 | 0.0 | 0.00 | 0.00 | 0.00 | 77 | 1026.0 |
| 20260502034004 | 39 | 69 | 0.0 | 0.0 | 0.00 | 0.00 | 0.00 | 77 | 1026.0 |
| 20260502033503 | 39 | 69 | 0.0 | 0.0 | 0.00 | 0.00 | 0.00 | 76 | 1026.0 |
| 20260502033003 | 39 | 69 | 0.0 | 0.0 | 0.00 | 0.00 | 0.00 | 76 | 1026.0 |
| 20260502032503 | 39 | 66 | 0.0 | 0.0 | 0.00 | 0.00 | 0.00 | 76 | 1026.0 |
| 20260502032002 | 39 | 66 | 0.0 | 0.0 | 0.00 | 0.00 | 0.00 | 76 | 1026.0 |
| 20260502031502 | 39 | 66 | 0.0 | 0.0 | 0.00 | 0.00 | 0.00 | 76 | 1026.0 |
| 20260502031002 | 39 | 66 | 0.0 | 0.0 | 0.00 | 0.00 | 0.00 | 76 | 1026.0 |
| 20260502030501 | 39 | 66 | 0.0 | 0.0 | 0.00 | 0.00 | 0.00 | 75 | 1026.0 |
| 20260502030001 | 39 | 66 | 0.0 | 0.0 | 0.00 | 0.00 | 0.00 | 75 | 1026.0 |
| 20260502025501 | 39 | 66 | 0.0 | 0.0 | 0.00 | 0.00 | 0.00 | 75 | 1026.0 |
| 20260502025000 | 39 | 66 | 0.0 | 0.0 | 0.00 | 0.00 | 0.00 | 75 | 1026.0 |
| 20260502024005 | 40 | 66 | 0.0 | 0.0 | 0.00 | 0.00 | 0.00 | 75 | 1026.0 |
| 20260502023504 | 40 | 66 | 0.0 | 0.0 | 0.00 | 0.00 | 0.00 | 75 | 1026.0 |
| 20260502023004 | 40 | 66 | 0.0 | 0.0 | 0.00 | 0.00 | 0.00 | 75 | 1026.0 |
| 20260502022504 | 40 | 66 | 0.0 | 0.0 | 0.00 | 0.00 | 0.00 | 74 | 1026.0 |
| 20260502022004 | 40 | 66 | 0.0 | 0.0 | 0.00 | 0.00 | 0.00 | 74 | 1026.0 |
| 20260502021503 | 40 | 234 | 0.0 | 0.0 | 0.00 | 0.00 | 0.00 | 74 | 1026.0 |
| 20260502021003 | 40 | 234 | 0.0 | 0.0 | 0.00 | 0.00 | 0.00 | 74 | 1026.0 |
| 20260502020503 | 41 | 234 | 0.0 | 0.0 | 0.00 | 0.00 | 0.00 | 73 | 1026.0 |
| 20260502020002 | 41 | 234 | 0.0 | 0.0 | 0.00 | 0.00 | 0.00 | 73 | 1026.0 |
| 20260502015502 | 41 | 234 | 0.0 | 0.0 | 0.00 | 0.00 | 0.00 | 72 | 1026.0 |
| 20260502015002 | 41 | 234 | 0.0 | 0.0 | 0.00 | 0.00 | 0.00 | 72 | 1026.0 |
| 20260502014501 | 41 | 234 | 0.0 | 0.0 | 0.00 | 0.00 | 0.00 | 71 | 1026.0 |
| 20260502014001 | 41 | 234 | 0.0 | 0.0 | 0.00 | 0.00 | 0.00 | 71 | 1026.0 |
| 20260502013501 | 42 | 234 | 0.0 | 0.0 | 0.00 | 0.00 | 0.00 | 71 | 1027.0 |
| 20260502013000 | 42 | 234 | 0.0 | 0.0 | 0.00 | 0.00 | 0.00 | 71 | 1027.0 |
| 20260502012500 | 42 | 234 | 0.0 | 0.0 | 0.00 | 0.00 | 0.00 | 70 | 1027.0 |
| 20260502012005 | 42 | 234 | 0.0 | 0.0 | 0.00 | 0.00 | 0.00 | 70 | 1027.0 |
| 20260502011504 | 42 | 234 | 0.0 | 0.0 | 0.00 | 0.00 | 0.00 | 70 | 1027.0 |
| 20260502011004 | 42 | 234 | 0.0 | 0.0 | 0.00 | 0.00 | 0.00 | 70 | 1027.0 |
| 20260502010504 | 42 | 239 | 0.0 | 0.0 | 0.00 | 0.00 | 0.00 | 69 | 1027.0 |
| 20260502010003 | 42 | 239 | 0.0 | 0.0 | 0.00 | 0.00 | 0.00 | 69 | 1027.0 |
| 20260502005503 | 43 | 239 | 0.0 | 0.0 | 0.00 | 0.00 | 0.00 | 69 | 1027.0 |
| 20260502005003 | 43 | 239 | 0.0 | 0.0 | 0.00 | 0.00 | 0.00 | 69 | 1027.0 |
| 20260502004502 | 43 | 239 | 0.0 | 0.0 | 0.00 | 0.00 | 0.00 | 68 | 1027.0 |
| 20260502004003 | 43 | 239 | 0.0 | 0.0 | 0.00 | 0.00 | 0.00 | 68 | 1027.0 |
| 20260502003502 | 43 | 239 | 0.0 | 0.0 | 0.00 | 0.00 | 0.00 | 68 | 1027.0 |
| 20260502003001 | 43 | 239 | 0.0 | 0.0 | 0.00 | 0.00 | 0.00 | 68 | 1027.0 |
| 20260502002501 | 44 | 239 | 0.0 | 0.0 | 0.00 | 0.00 | 0.00 | 67 | 1027.0 |
| 20260502002001 | 44 | 239 | 0.0 | 0.0 | 0.00 | 0.00 | 0.00 | 67 | 1027.0 |
| 20260502001501 | 44 | 239 | 0.0 | 0.0 | 0.00 | 0.00 | 0.00 | 66 | 1027.0 |
| 20260502001000 | 44 | 239 | 0.0 | 0.0 | 0.00 | 0.00 | 0.00 | 66 | 1027.0 |
| 20260502000500 | 45 | 239 | 0.0 | 0.0 | 0.00 | 0.00 | 0.00 | 65 | 1027.0 |
| 20260502000005 | 45 | 239 | 0.0 | 0.0 | 0.00 | 0.00 | 0.00 | 65 | 1027.0 |
| 20260501235504 | 45 | 242 | 0.0 | 0.0 | 0.00 | 0.00 | 0.00 | 65 | 1027.0 |
| 20260501235004 | 45 | 242 | 0.0 | 0.0 | 0.00 | 0.00 | 0.00 | 65 | 1027.0 |
| 20260501234504 | 45 | 242 | 0.0 | 0.0 | 0.00 | 0.00 | 0.00 | 65 | 1027.0 |
| 20260501234004 | 45 | 242 | 0.0 | 0.0 | 0.00 | 0.00 | 0.00 | 65 | 1027.0 |
| 20260501233503 | 46 | 245 | 0.0 | 0.0 | 0.00 | 0.00 | 0.00 | 64 | 1027.0 |
| 20260501233003 | 46 | 245 | 0.0 | 0.0 | 0.00 | 0.00 | 0.00 | 64 | 1027.0 |
| 20260501232503 | 46 | 245 | 0.0 | 0.0 | 0.00 | 0.00 | 0.00 | 63 | 1027.0 |
| 20260501232002 | 46 | 245 | 0.0 | 0.0 | 0.00 | 0.00 | 0.00 | 63 | 1027.0 |
| 20260501231502 | 46 | 246 | 0.0 | 0.0 | 0.00 | 0.00 | 0.00 | 63 | 1028.0 |
| 20260501231002 | 46 | 246 | 0.0 | 0.0 | 0.00 | 0.00 | 0.00 | 63 | 1028.0 |
| 20260501230502 | 47 | 246 | 0.0 | 0.0 | 0.00 | 0.00 | 0.00 | 61 | 1028.0 |
| 20260501230001 | 47 | 246 | 0.0 | 0.0 | 0.00 | 0.00 | 0.00 | 61 | 1028.0 |
| 20260501225501 | 47 | 246 | 0.0 | 0.0 | 0.00 | 0.00 | 0.00 | 61 | 1028.0 |
| 20260501225001 | 47 | 246 | 0.0 | 0.0 | 0.00 | 0.00 | 0.00 | 61 | 1028.0 |
| 20260501224500 | 48 | 251 | 0.0 | 0.0 | 0.00 | 0.00 | 0.00 | 60 | 1028.0 |
| 20260501224000 | 48 | 251 | 0.0 | 0.0 | 0.00 | 0.00 | 0.00 | 60 | 1028.0 |
| 20260501223505 | 49 | 251 | 0.0 | 0.0 | 0.00 | 0.00 | 0.00 | 58 | 1028.0 |
| 20260501223005 | 49 | 251 | 0.0 | 0.0 | 0.00 | 0.00 | 0.00 | 58 | 1028.0 |
| 20260501222505 | 49 | 251 | 0.0 | 0.0 | 0.00 | 0.00 | 0.00 | 58 | 1028.0 |
| 20260501222004 | 49 | 251 | 0.0 | 0.0 | 0.00 | 0.00 | 0.00 | 58 | 1028.0 |
| 20260501221504 | 50 | 251 | 0.0 | 0.0 | 0.00 | 0.00 | 0.00 | 57 | 1028.0 |
| 20260501221004 | 50 | 251 | 0.0 | 0.0 | 0.00 | 0.00 | 0.00 | 57 | 1028.0 |
| 20260501220503 | 50 | 251 | 0.0 | 0.0 | 0.00 | 0.00 | 0.00 | 56 | 1028.0 |
| 20260501220003 | 50 | 251 | 0.0 | 0.0 | 0.00 | 0.00 | 0.00 | 56 | 1028.0 |
| 20260501215503 | 51 | 251 | 0.0 | 0.0 | 0.00 | 0.00 | 0.00 | 55 | 1028.0 |
| 20260501215002 | 51 | 251 | 0.0 | 0.0 | 0.00 | 0.00 | 0.00 | 55 | 1028.0 |
| 20260501214502 | 51 | 252 | 0.0 | 0.0 | 0.00 | 0.00 | 0.00 | 54 | 1028.0 |
| 20260501214002 | 51 | 252 | 0.0 | 0.0 | 0.00 | 0.00 | 0.00 | 54 | 1028.0 |
| 20260501213501 | 52 | 252 | 0.0 | 0.0 | 0.00 | 0.00 | 0.00 | 54 | 1028.0 |
| 20260501213001 | 52 | 252 | 0.0 | 0.0 | 0.00 | 0.00 | 0.00 | 54 | 1028.0 |
| 20260501212500 | 52 | 252 | 0.0 | 0.0 | 0.00 | 0.00 | 0.00 | 53 | 1028.0 |
| 20260501212000 | 52 | 252 | 0.0 | 0.0 | 0.00 | 0.00 | 0.00 | 53 | 1028.0 |
| 20260501211505 | 53 | 252 | 0.0 | 0.0 | 0.00 | 0.00 | 0.00 | 52 | 1028.0 |
| 20260501211004 | 53 | 252 | 0.0 | 0.0 | 0.00 | 0.00 | 0.00 | 52 | 1028.0 |
| 20260501210504 | 53 | 252 | 0.0 | 0.0 | 0.00 | 0.00 | 0.00 | 52 | 1028.0 |
| 20260501210004 | 53 | 252 | 0.0 | 0.0 | 0.00 | 0.00 | 0.00 | 52 | 1028.0 |
| 20260501205503 | 53 | 252 | 0.0 | 0.0 | 0.00 | 0.00 | 0.00 | 51 | 1028.0 |
| 20260501205003 | 53 | 252 | 0.0 | 0.0 | 0.00 | 0.00 | 0.00 | 51 | 1028.0 |
| 20260501204503 | 54 | 252 | 0.0 | 0.0 | 0.00 | 0.00 | 0.00 | 49 | 1028.0 |
| 20260501204003 | 54 | 252 | 0.0 | 0.0 | 0.00 | 0.00 | 0.00 | 49 | 1028.0 |
| 20260501203502 | 55 | 252 | 0.0 | 0.0 | 0.00 | 0.00 | 0.00 | 48 | 1028.0 |
| 20260501203002 | 55 | 252 | 0.0 | 0.0 | 0.00 | 0.00 | 0.00 | 48 | 1028.0 |
| 20260501202501 | 55 | 252 | 0.0 | 0.0 | 0.00 | 0.00 | 0.00 | 48 | 1028.0 |
| 20260501202001 | 55 | 252 | 0.0 | 0.0 | 0.00 | 0.00 | 0.00 | 48 | 1028.0 |
| 20260501201501 | 56 | 252 | 0.0 | 0.0 | 0.00 | 0.00 | 0.00 | 47 | 1028.0 |
| 20260501201000 | 56 | 252 | 0.0 | 0.0 | 0.00 | 0.00 | 0.00 | 47 | 1028.0 |
| 20260501200500 | 57 | 236 | 0.0 | 0.0 | 0.00 | 0.00 | 0.00 | 45 | 1028.0 |
| 20260501200005 | 57 | 236 | 0.0 | 0.0 | 0.00 | 0.00 | 0.00 | 45 | 1028.0 |
| 20260501195505 | 58 | 236 | 0.0 | 0.0 | 0.00 | 0.00 | 0.00 | 44 | 1029.0 |
| 20260501195004 | 58 | 236 | 0.0 | 0.0 | 0.00 | 0.00 | 0.00 | 44 | 1029.0 |
| 20260501194504 | 58 | 236 | 0.0 | 0.0 | 0.00 | 0.00 | 0.00 | 43 | 1029.0 |
| 20260501194004 | 58 | 236 | 0.0 | 0.0 | 0.00 | 0.00 | 0.00 | 43 | 1029.0 |
| 20260501193503 | 59 | 219 | 0.0 | 0.0 | 0.00 | 0.00 | 0.00 | 42 | 1029.0 |
| 20260501193003 | 59 | 219 | 0.0 | 0.0 | 0.00 | 0.00 | 0.00 | 42 | 1029.0 |
| 20260501192503 | 60 | 219 | 0.0 | 0.0 | 0.00 | 0.00 | 0.00 | 41 | 1029.0 |
| 20260501192003 | 60 | 219 | 0.0 | 0.0 | 0.00 | 0.00 | 0.00 | 41 | 1029.0 |
| 20260501191502 | 61 | 219 | 0.0 | 0.0 | 0.00 | 0.00 | 0.00 | 41 | 1029.0 |
| 20260501191002 | 61 | 219 | 0.0 | 0.0 | 0.00 | 0.00 | 0.00 | 41 | 1029.0 |
| 20260501190502 | 62 | 213 | 0.0 | 0.0 | 0.00 | 0.00 | 0.00 | 40 | 1029.0 |
| 20260501190002 | 62 | 213 | 0.0 | 0.0 | 0.00 | 0.00 | 0.00 | 40 | 1029.0 |
| 20260501185501 | 63 | 213 | 0.0 | 0.0 | 0.00 | 0.00 | 0.00 | 39 | 1029.0 |
| 20260501185001 | 63 | 213 | 0.0 | 0.0 | 0.00 | 0.00 | 0.00 | 39 | 1029.0 |
| 20260501184501 | 64 | 213 | 0.0 | 0.0 | 0.00 | 0.00 | 0.00 | 38 | 1029.0 |
| 20260501184001 | 64 | 213 | 0.0 | 0.0 | 0.00 | 0.00 | 0.00 | 38 | 1029.0 |
| 20260501183500 | 65 | 213 | 0.0 | 0.0 | 0.00 | 0.00 | 0.00 | 37 | 1029.0 |
| 20260501183000 | 65 | 213 | 0.0 | 0.0 | 0.00 | 0.00 | 0.00 | 37 | 1029.0 |
| 20260501182505 | 66 | 165 | 0.0 | 0.0 | 0.00 | 0.00 | 0.00 | 36 | 1028.0 |